createdAt,value
2022-09-06T00:01:00.289Z,4.10
2022-09-06T00:03:28.424Z,4.15
2022-09-06T00:05:55.696Z,4.22
2022-09-06T00:08:23.050Z,3.78
2022-09-06T00:11:00.843Z,4.10
2022-09-06T00:13:28.727Z,4.20
2022-09-06T00:15:56.270Z,3.90
2022-09-06T00:18:23.694Z,4.20
2022-09-06T00:20:51.100Z,3.80
2022-09-06T00:23:18.545Z,4.63
2022-09-06T00:25:45.941Z,4.30
2022-09-06T00:28:13.292Z,4.90
2022-09-06T00:30:41.376Z,4.75
2022-09-06T00:33:08.850Z,4.55
2022-09-06T00:35:36.266Z,4.90
2022-09-06T00:38:03.632Z,4.50
2022-09-06T00:40:33.979Z,4.13
2022-09-06T00:43:01.466Z,4.03
2022-09-06T00:45:29.079Z,4.55
2022-09-06T00:47:56.931Z,4.05
2022-09-06T00:50:24.284Z,4.57
2022-09-06T00:52:52.828Z,5.05
2022-09-06T00:55:20.557Z,4.60
2022-09-06T00:57:51.115Z,4.03
2022-09-06T01:00:19.916Z,4.70
2022-09-06T01:02:48.246Z,5.10
2022-09-06T01:05:16.212Z,5.38
2022-09-06T01:07:46.607Z,5.68
2022-09-06T01:10:20.148Z,7.47
2022-09-06T01:13:02.801Z,6.75
2022-09-06T01:15:50.467Z,6.95
2022-09-06T01:18:33.116Z,4.88
2022-09-06T01:21:19.319Z,5.28
2022-09-06T01:24:01.926Z,5.30
2022-09-06T01:26:35.384Z,5.65
2022-09-06T01:29:03.380Z,5.72
2022-09-06T01:31:53.113Z,4.90
2022-09-06T01:34:23.663Z,5.20
2022-09-06T01:37:09.830Z,5.28
2022-09-06T01:39:38.437Z,4.80
2022-09-06T01:42:09.134Z,5.00
2022-09-06T01:44:37.323Z,4.95
2022-09-06T01:47:04.674Z,4.28
2022-09-06T01:49:32.078Z,3.75
2022-09-06T01:52:18.275Z,3.95
2022-09-06T01:54:57.970Z,3.88
2022-09-06T01:57:37.102Z,4.00
2022-09-06T02:00:11.728Z,4.60
2022-09-06T02:02:42.063Z,4.10
2022-09-06T02:05:28.358Z,4.00
2022-09-06T02:07:58.767Z,3.80
2022-09-06T02:10:28.623Z,3.60
2022-09-06T02:12:58.355Z,3.42
2022-09-06T02:15:25.758Z,3.30
2022-09-06T02:18:19.615Z,3.85
2022-09-06T02:20:50.767Z,4.00
2022-09-06T02:23:19.155Z,4.10
2022-09-06T02:25:50.638Z,4.80
2022-09-06T02:28:18.187Z,4.25
2022-09-06T02:30:50.710Z,3.63
2022-09-06T02:33:20.932Z,3.88
2022-09-06T02:35:49.456Z,3.70
2022-09-06T02:38:17.903Z,3.60
2022-09-06T02:40:46.528Z,3.92
2022-09-06T02:43:13.826Z,3.45
2022-09-06T02:45:41.214Z,3.90
2022-09-06T02:48:08.593Z,4.10
2022-09-06T02:50:37.116Z,4.45
2022-09-06T02:53:07.432Z,4.30
2022-09-06T02:55:34.771Z,4.15
2022-09-06T02:58:03.307Z,4.50
2022-09-06T03:00:30.702Z,4.55
2022-09-06T03:02:58.214Z,4.78
2022-09-06T03:05:26.362Z,4.63
2022-09-06T03:07:54.553Z,4.68
2022-09-06T03:10:26.241Z,4.45
2022-09-06T03:12:54.139Z,5.18
2022-09-06T03:15:21.747Z,5.00
2022-09-06T03:17:49.096Z,4.95
2022-09-06T03:20:16.409Z,4.90
2022-09-06T03:22:43.639Z,4.47
2022-09-06T03:25:11.454Z,5.05
2022-09-06T03:27:38.820Z,5.28
2022-09-06T03:30:06.882Z,4.63
2022-09-06T03:32:34.352Z,5.03
2022-09-06T03:35:01.976Z,4.60
2022-09-06T03:37:29.263Z,4.47
2022-09-06T03:39:56.566Z,4.78
2022-09-06T03:42:26.519Z,4.47
2022-09-06T03:44:54.326Z,4.25
2022-09-06T03:47:21.606Z,4.22
2022-09-06T03:49:49.159Z,4.10
2022-09-06T03:52:16.483Z,4.53
2022-09-06T03:54:43.726Z,4.00
2022-09-06T03:57:11.045Z,4.88
2022-09-06T03:59:38.493Z,4.32
2022-09-06T04:02:06.603Z,4.63
2022-09-06T04:04:34.188Z,4.28
2022-09-06T04:07:01.448Z,4.50
2022-09-06T04:09:28.947Z,4.28
2022-09-06T04:11:56.216Z,4.20
2022-09-06T04:14:23.487Z,4.63
2022-09-06T04:16:51.257Z,4.50
2022-09-06T04:19:18.743Z,4.65
2022-09-06T04:21:46.106Z,4.55
2022-09-06T04:24:13.557Z,4.93
2022-09-06T04:26:41.561Z,5.20
2022-09-06T04:29:08.859Z,4.70
2022-09-06T04:31:36.297Z,4.28
2022-09-06T04:34:03.816Z,4.97
2022-09-06T04:36:31.209Z,4.90
2022-09-06T04:38:58.534Z,4.50
2022-09-06T04:41:26.168Z,6.00
2022-09-06T04:43:53.444Z,5.70
2022-09-06T04:46:22.584Z,6.15
2022-09-06T04:48:50.465Z,5.40
2022-09-06T04:51:17.937Z,5.35
2022-09-06T04:53:45.498Z,4.68
2022-09-06T04:56:16.037Z,4.35
2022-09-06T04:58:43.727Z,4.47
2022-09-06T05:01:11.286Z,4.80
2022-09-06T05:03:38.922Z,4.93
2022-09-06T05:06:13.437Z,5.15
2022-09-06T05:08:41.495Z,4.40
2022-09-06T05:11:09.690Z,5.00
2022-09-06T05:13:37.081Z,5.13
2022-09-06T05:16:05.960Z,4.88
2022-09-06T05:18:34.008Z,5.20
2022-09-06T05:21:01.412Z,5.30
2022-09-06T05:23:28.816Z,4.80
2022-09-06T05:25:56.421Z,5.13
2022-09-06T05:28:24.125Z,5.32
2022-09-06T05:30:51.593Z,6.18
2022-09-06T05:33:23.107Z,5.47
2022-09-06T05:35:50.668Z,4.95
2022-09-06T05:38:18.031Z,4.88
2022-09-06T05:40:45.326Z,4.30
2022-09-06T05:43:12.885Z,4.85
2022-09-06T05:45:40.301Z,4.90
2022-09-06T05:48:08.654Z,4.50
2022-09-06T05:50:36.228Z,4.55
2022-09-06T05:53:03.842Z,4.78
2022-09-06T05:55:31.297Z,4.10
2022-09-06T05:57:58.576Z,4.57
2022-09-06T06:00:25.947Z,4.45
2022-09-06T06:02:53.384Z,4.75
2022-09-06T06:05:20.774Z,4.60
2022-09-06T06:07:48.194Z,4.80
2022-09-06T06:10:15.987Z,4.55
2022-09-06T06:12:43.395Z,5.07
2022-09-06T06:15:10.843Z,5.28
2022-09-06T06:17:38.142Z,5.50
2022-09-06T06:20:05.695Z,5.55
2022-09-06T06:22:32.958Z,5.90
2022-09-06T06:25:00.220Z,6.00
2022-09-06T06:27:27.654Z,5.90
2022-09-06T06:29:54.955Z,6.47
2022-09-06T06:32:22.476Z,6.35
2022-09-06T06:34:49.789Z,7.25
2022-09-06T06:37:17.018Z,6.35
2022-09-06T06:39:45.217Z,6.57
2022-09-06T06:42:12.821Z,6.57
2022-09-06T06:44:40.179Z,6.15
2022-09-06T06:47:07.601Z,6.30
2022-09-06T06:49:35.637Z,7.03
2022-09-06T06:52:03.074Z,6.45
2022-09-06T06:54:30.597Z,6.30
2022-09-06T06:56:58.021Z,6.43
2022-09-06T06:59:25.359Z,6.80
2022-09-06T07:01:53.030Z,6.20
2022-09-06T07:04:20.500Z,6.75
2022-09-06T07:12:30.424Z,6.05
2022-09-06T07:14:57.659Z,5.70
2022-09-06T07:17:25.014Z,6.10
2022-09-06T07:22:40.618Z,6.18
2022-09-06T07:25:09.125Z,5.90
2022-09-06T07:30:15.465Z,6.15
2022-09-06T07:32:42.899Z,6.05
2022-09-06T07:35:12.416Z,5.72
2022-09-06T07:37:39.885Z,5.25
2022-09-06T07:40:07.522Z,5.15
2022-09-06T07:42:36.486Z,5.60
2022-09-06T07:45:05.316Z,5.40
2022-09-06T07:53:15.201Z,5.20
2022-09-06T07:55:44.968Z,4.85
2022-09-06T07:58:12.572Z,5.00
2022-09-06T08:00:41.434Z,5.40
2022-09-06T08:03:09.307Z,5.20
2022-09-06T08:11:15.644Z,4.50
2022-09-06T08:13:44.645Z,4.60
2022-09-06T08:16:14.800Z,4.47
2022-09-06T08:18:43.826Z,4.50
2022-09-06T08:21:16.289Z,4.32
2022-09-06T08:23:49.233Z,4.75
2022-09-06T08:26:17.750Z,4.18
2022-09-06T08:28:47.251Z,4.00
2022-09-06T08:31:16.412Z,4.25
2022-09-06T08:33:45.716Z,4.45
2022-09-06T08:36:13.203Z,4.00
2022-09-06T08:38:40.696Z,4.28
2022-09-06T08:41:13.144Z,4.20
2022-09-06T08:43:47.007Z,4.40
2022-09-06T08:46:16.615Z,3.83
2022-09-06T08:48:44.174Z,3.58
2022-09-06T08:51:23.356Z,3.50
2022-09-06T08:53:54.578Z,3.90
2022-09-06T08:56:26.791Z,3.92
2022-09-06T08:59:09.603Z,3.45
2022-09-06T09:01:42.001Z,4.10
2022-09-06T09:04:14.394Z,4.15
2022-09-06T09:06:42.332Z,3.55
2022-09-06T09:09:14.184Z,3.67
2022-09-06T09:11:45.669Z,3.92
2022-09-06T09:14:16.139Z,3.80
2022-09-06T09:16:43.967Z,3.65
2022-09-06T09:19:11.638Z,4.10
2022-09-06T09:21:40.162Z,4.22
2022-09-06T09:24:08.785Z,3.70
2022-09-06T09:26:56.823Z,4.13
2022-09-06T09:29:28.751Z,4.05
2022-09-06T09:31:58.008Z,4.25
2022-09-06T09:34:39.888Z,4.43
2022-09-06T09:40:22.407Z,4.13
2022-09-06T09:42:50.008Z,4.35
2022-09-06T09:45:28.058Z,3.60
2022-09-06T09:47:55.753Z,3.45
2022-09-06T09:50:28.238Z,3.92
2022-09-06T09:52:55.631Z,4.13
2022-09-06T09:55:24.341Z,3.60
2022-09-06T09:57:54.092Z,4.13
2022-09-06T10:00:50.917Z,3.45
2022-09-06T10:03:19.958Z,3.63
2022-09-06T10:06:02.562Z,3.70
2022-09-06T10:08:31.953Z,3.90
2022-09-06T10:10:59.350Z,3.50
2022-09-06T10:13:29.575Z,3.55
2022-09-06T10:15:58.964Z,4.22
2022-09-06T10:18:31.476Z,3.60
2022-09-06T10:21:03.093Z,3.88
2022-09-06T10:26:36.408Z,3.80
2022-09-06T10:29:09.818Z,3.83
2022-09-06T10:31:40.347Z,3.25
2022-09-06T10:34:10.596Z,3.65
2022-09-06T10:36:39.220Z,3.47
2022-09-06T10:39:25.330Z,3.63
2022-09-06T10:41:52.662Z,3.33
2022-09-06T10:44:38.489Z,3.50
2022-09-06T10:47:13.236Z,3.50
2022-09-06T10:49:54.817Z,3.50
2022-09-06T10:52:43.492Z,3.50
2022-09-06T10:55:14.033Z,3.70
2022-09-06T11:00:37.739Z,3.33
2022-09-06T11:06:14.035Z,4.20
2022-09-06T11:08:49.108Z,3.55
2022-09-06T11:11:20.755Z,3.70
2022-09-06T11:13:48.048Z,3.50
2022-09-06T11:16:42.183Z,4.03
2022-09-06T11:19:30.408Z,3.28
2022-09-06T11:22:09.475Z,3.95
2022-09-06T11:24:46.029Z,3.67
2022-09-06T11:27:13.310Z,3.50
2022-09-06T11:29:42.421Z,3.40
2022-09-06T11:32:49.789Z,3.55
2022-09-06T11:35:24.944Z,3.28
2022-09-06T11:38:02.874Z,4.05
2022-09-06T11:40:44.283Z,3.70
2022-09-06T11:43:13.485Z,3.50
2022-09-06T11:45:51.363Z,3.92
2022-09-06T11:48:25.442Z,4.07
2022-09-06T11:50:56.436Z,3.75
2022-09-06T11:53:24.607Z,3.67
2022-09-06T11:56:10.477Z,3.65
2022-09-06T11:58:40.842Z,3.63
2022-09-06T12:01:16.513Z,3.42
2022-09-06T12:06:42.926Z,3.85
2022-09-06T12:09:29.139Z,3.67
2022-09-06T12:11:56.848Z,3.97
2022-09-06T12:14:42.608Z,3.75
2022-09-06T12:17:10.041Z,3.47
2022-09-06T12:19:59.549Z,3.53
2022-09-06T12:22:29.880Z,3.33
2022-09-06T12:25:01.347Z,3.60
2022-09-06T12:27:51.266Z,3.00
2022-09-06T12:30:37.424Z,2.85
2022-09-06T12:33:23.150Z,2.88
2022-09-06T12:35:58.636Z,3.15
2022-09-06T12:38:26.754Z,2.97
2022-09-06T12:40:58.986Z,2.95
2022-09-06T12:43:27.265Z,3.03
2022-09-06T12:45:54.705Z,3.08
2022-09-06T12:48:33.508Z,2.75
2022-09-06T12:51:08.438Z,3.40
2022-09-06T12:53:36.499Z,3.83
2022-09-06T12:56:13.403Z,3.05
2022-09-06T12:58:41.065Z,3.35
2022-09-06T13:01:15.065Z,3.22
2022-09-06T13:03:54.138Z,2.95
2022-09-06T13:06:26.771Z,3.38
2022-09-06T13:08:56.101Z,2.40
2022-09-06T13:11:44.035Z,2.78
2022-09-06T13:14:14.511Z,3.30
2022-09-06T13:16:47.166Z,3.13
2022-09-06T13:19:31.010Z,2.67
2022-09-06T13:21:58.849Z,2.95
2022-09-06T13:24:26.804Z,2.97
2022-09-06T13:26:55.039Z,2.45
2022-09-06T13:29:23.239Z,2.88
2022-09-06T13:31:52.477Z,2.95
2022-09-06T13:34:29.191Z,2.72
2022-09-06T13:37:16.734Z,2.55
2022-09-06T13:39:44.908Z,2.90
2022-09-06T13:42:24.234Z,2.80
2022-09-06T13:44:51.810Z,2.72
2022-09-06T13:47:19.108Z,2.83
2022-09-06T13:49:47.304Z,2.78
2022-09-06T13:52:15.292Z,2.60
2022-09-06T13:54:42.630Z,3.03
2022-09-06T13:57:10.011Z,2.65
2022-09-06T13:59:37.585Z,2.63
2022-09-06T14:02:07.772Z,2.78
2022-09-06T14:04:35.804Z,2.60
2022-09-06T14:07:03.412Z,2.47
2022-09-06T14:09:30.998Z,2.60
2022-09-06T14:12:35.643Z,2.63
2022-09-06T14:15:03.136Z,2.70
2022-09-06T14:17:30.494Z,2.78
2022-09-06T14:19:57.879Z,3.05
2022-09-06T14:22:25.389Z,2.58
2022-09-06T14:24:52.787Z,2.80
2022-09-06T14:27:20.303Z,2.30
2022-09-06T14:29:48.591Z,2.67
2022-09-06T14:32:19.329Z,2.67
2022-09-06T14:34:50.130Z,2.58
2022-09-06T14:37:17.632Z,2.38
2022-09-06T14:40:22.718Z,2.20
2022-09-06T14:42:50.728Z,3.00
2022-09-06T14:45:18.856Z,2.90
2022-09-06T14:47:46.333Z,2.53
2022-09-06T14:50:13.740Z,2.85
2022-09-06T14:52:41.079Z,2.58
2022-09-06T14:55:08.673Z,2.70
2022-09-06T14:57:36.351Z,2.72
2022-09-06T15:00:07.658Z,3.00
2022-09-06T15:02:38.243Z,2.85
2022-09-06T15:05:06.148Z,3.63
2022-09-06T15:07:33.692Z,2.97
2022-09-06T15:10:01.291Z,2.90
2022-09-06T15:12:28.898Z,2.95
2022-09-06T15:14:56.335Z,3.13
2022-09-06T15:17:23.729Z,3.17
2022-09-06T15:19:51.182Z,3.30
2022-09-06T15:22:18.519Z,3.55
2022-09-06T15:24:45.790Z,3.35
2022-09-06T15:27:13.078Z,3.67
2022-09-06T15:29:40.727Z,3.53
2022-09-06T15:32:08.468Z,3.97
2022-09-06T15:34:38.548Z,3.28
2022-09-06T15:37:05.992Z,2.90
2022-09-06T15:39:33.311Z,2.70
2022-09-06T15:42:00.677Z,2.97
2022-09-06T15:44:28.335Z,3.08
2022-09-06T15:46:59.508Z,2.95
2022-09-06T15:49:28.791Z,2.90
2022-09-06T15:52:00.986Z,2.75
2022-09-06T15:54:47.953Z,3.22
2022-09-06T15:57:16.351Z,3.60
2022-09-06T15:59:44.152Z,3.15
2022-09-06T16:02:12.130Z,3.13
2022-09-06T16:04:39.551Z,3.03
2022-09-06T16:07:07.301Z,3.28
2022-09-06T16:09:35.685Z,3.13
2022-09-06T16:12:03.351Z,3.03
2022-09-06T16:14:30.690Z,3.17
2022-09-06T16:17:00.376Z,3.10
2022-09-06T16:19:28.711Z,2.83
2022-09-06T16:21:56.498Z,3.00
2022-09-06T16:24:23.758Z,3.28
2022-09-06T16:26:51.282Z,2.90
2022-09-06T16:29:19.562Z,2.58
2022-09-06T16:31:47.062Z,2.55
2022-09-06T16:34:15.420Z,2.70
2022-09-06T16:36:42.818Z,2.80
2022-09-06T16:39:10.860Z,2.95
2022-09-06T16:41:42.911Z,3.10
2022-09-06T16:44:16.739Z,3.08
2022-09-06T16:46:45.561Z,2.80
2022-09-06T16:49:13.213Z,2.50
2022-09-06T16:51:40.766Z,3.00
2022-09-06T16:54:08.060Z,2.45
2022-09-06T16:56:36.083Z,2.72
2022-09-06T16:59:04.967Z,2.40
2022-09-06T17:01:32.856Z,2.65
2022-09-06T17:04:04.091Z,2.28
2022-09-06T17:06:32.598Z,2.40
2022-09-06T17:09:00.270Z,2.20
2022-09-06T17:11:29.418Z,2.38
2022-09-06T17:13:57.508Z,2.08
2022-09-06T17:16:44.213Z,2.78
2022-09-06T17:19:12.059Z,2.70
2022-09-06T17:21:40.281Z,2.22
2022-09-06T17:24:08.525Z,3.30
2022-09-06T17:26:38.902Z,3.70
2022-09-06T17:29:07.230Z,2.65
2022-09-06T17:31:38.231Z,2.85
2022-09-06T17:34:06.817Z,2.45
2022-09-06T17:36:35.195Z,2.53
2022-09-06T17:39:06.089Z,3.15
2022-09-06T17:41:38.924Z,2.67
2022-09-06T17:44:07.672Z,2.80
2022-09-06T17:46:35.253Z,2.75
2022-09-06T17:49:03.224Z,2.60
2022-09-06T17:51:31.326Z,3.10
2022-09-06T17:53:58.753Z,2.50
2022-09-06T17:56:26.600Z,2.30
2022-09-06T17:58:55.392Z,2.53
2022-09-06T18:01:23.865Z,2.42
2022-09-06T18:03:51.857Z,2.53
2022-09-06T18:06:21.207Z,2.13
2022-09-06T18:08:48.539Z,2.83
2022-09-06T18:11:22.461Z,2.70
2022-09-06T18:13:55.489Z,2.05
2022-09-06T18:16:22.916Z,2.67
2022-09-06T18:18:54.566Z,2.67
2022-09-06T18:21:22.606Z,3.03
2022-09-06T18:23:50.273Z,3.55
2022-09-06T18:26:19.268Z,3.75
2022-09-06T18:28:46.928Z,3.97
2022-09-06T18:31:15.672Z,3.55
2022-09-06T18:33:43.379Z,4.55
2022-09-06T18:36:13.060Z,3.13
2022-09-06T18:38:42.901Z,2.60
2022-09-06T18:41:31.112Z,2.92
2022-09-06T18:44:01.115Z,2.38
2022-09-06T18:46:28.675Z,2.90
2022-09-06T18:48:56.037Z,2.60
2022-09-06T18:51:23.425Z,5.80
2022-09-06T18:53:53.109Z,6.28
2022-09-06T18:56:20.924Z,6.75
2022-09-06T18:58:48.461Z,4.30
2022-09-06T19:01:17.501Z,3.60
2022-09-06T19:03:45.076Z,2.67
2022-09-06T19:06:13.840Z,2.50
2022-09-06T19:08:42.945Z,2.47
2022-09-06T19:11:15.403Z,2.47
2022-09-06T19:13:43.349Z,2.42
2022-09-06T19:16:12.389Z,2.53
2022-09-06T19:18:40.426Z,2.70
2022-09-06T19:21:08.863Z,3.38
2022-09-06T19:23:38.016Z,4.72
2022-09-06T19:26:07.822Z,4.10
2022-09-06T19:28:36.140Z,4.25
2022-09-06T19:31:07.940Z,3.00
2022-09-06T19:33:36.389Z,3.00
2022-09-06T19:36:12.573Z,3.85
2022-09-06T19:41:28.928Z,2.80
2022-09-06T19:43:57.325Z,3.13
2022-09-06T19:46:25.155Z,2.92
2022-09-06T19:48:53.734Z,2.88
2022-09-06T19:51:21.578Z,2.75
2022-09-06T19:53:50.106Z,3.00
2022-09-06T19:56:18.579Z,2.80
2022-09-06T19:58:46.048Z,2.65
2022-09-06T20:01:17.981Z,3.42
2022-09-06T20:03:45.495Z,2.97
2022-09-06T20:06:13.410Z,2.83
2022-09-06T20:08:41.352Z,2.90
2022-09-06T20:11:09.840Z,2.85
2022-09-06T20:13:38.690Z,3.05
2022-09-06T20:16:06.976Z,3.20
2022-09-06T20:18:35.451Z,2.97
2022-09-06T20:21:03.872Z,3.03
2022-09-06T20:23:32.206Z,3.03
2022-09-06T20:26:00.152Z,2.88
2022-09-06T20:28:28.035Z,2.88
2022-09-06T20:31:00.390Z,2.80
2022-09-06T20:33:28.078Z,2.75
2022-09-06T20:35:59.633Z,2.75
2022-09-06T20:38:30.676Z,2.88
2022-09-06T20:40:58.817Z,3.30
2022-09-06T20:43:26.426Z,3.05
2022-09-06T20:45:54.291Z,3.13
2022-09-06T20:48:22.297Z,2.72
2022-09-06T20:51:00.229Z,3.00
2022-09-06T20:53:28.468Z,2.75
2022-09-06T20:56:00.462Z,3.22
2022-09-06T20:58:28.349Z,3.03
2022-09-06T21:00:56.888Z,2.72
2022-09-06T21:03:25.001Z,2.95
2022-09-06T21:05:52.815Z,2.95
2022-09-06T21:08:20.695Z,2.92
2022-09-06T21:10:48.297Z,2.40
2022-09-06T21:13:15.918Z,2.58
2022-09-06T21:15:48.635Z,2.65
2022-09-06T21:18:17.036Z,2.53
2022-09-06T21:20:44.334Z,2.88
2022-09-06T21:23:12.450Z,2.88
2022-09-06T21:25:40.292Z,3.05
2022-09-06T21:28:07.669Z,2.85
2022-09-06T21:30:35.011Z,2.38
2022-09-06T21:33:02.771Z,2.72
2022-09-06T21:35:30.067Z,2.80
2022-09-06T21:37:57.437Z,2.22
2022-09-06T21:40:25.468Z,2.53
2022-09-06T21:42:54.999Z,2.42
2022-09-06T21:45:22.572Z,2.70
2022-09-06T21:47:50.242Z,2.50
2022-09-06T21:50:17.820Z,2.67
2022-09-06T21:52:45.388Z,2.25
2022-09-06T21:55:15.508Z,2.35
2022-09-06T21:57:43.069Z,2.30
2022-09-06T22:00:10.672Z,2.33
2022-09-06T22:02:38.130Z,1.67
2022-09-06T22:05:06.673Z,2.08
2022-09-06T22:07:36.324Z,2.20
2022-09-06T22:10:03.737Z,2.10
2022-09-06T22:12:31.148Z,1.80
2022-09-06T22:14:58.846Z,2.05
2022-09-06T22:17:26.288Z,2.00
2022-09-06T22:19:53.653Z,2.45
2022-09-06T22:22:21.544Z,1.90
2022-09-06T22:24:49.160Z,1.90
2022-09-06T22:27:16.404Z,2.00
2022-09-06T22:29:44.055Z,1.80
2022-09-06T22:32:11.334Z,1.77
2022-09-06T22:34:38.754Z,1.92
2022-09-06T22:37:06.077Z,1.77
2022-09-06T22:39:33.468Z,2.03
2022-09-06T22:42:01.438Z,2.03
2022-09-06T22:44:29.792Z,2.10
2022-09-06T22:46:57.275Z,1.98
2022-09-06T22:49:24.719Z,1.67
2022-09-06T22:51:53.717Z,2.05
2022-09-06T22:54:20.977Z,1.80
2022-09-06T22:56:48.421Z,2.08
2022-09-06T22:59:15.850Z,2.15
2022-09-06T23:01:43.308Z,2.10
2022-09-06T23:04:13.324Z,2.20
2022-09-06T23:06:40.836Z,2.10
2022-09-06T23:09:08.203Z,2.38
2022-09-06T23:11:35.822Z,2.03
2022-09-06T23:14:05.000Z,2.33
2022-09-06T23:16:32.403Z,2.50
2022-09-06T23:18:59.826Z,2.20
2022-09-06T23:21:27.589Z,2.75
2022-09-06T23:23:56.175Z,2.47
2022-09-06T23:26:25.825Z,2.35
2022-09-06T23:28:56.902Z,2.83
2022-09-06T23:31:25.646Z,2.80
2022-09-06T23:33:54.053Z,3.10
2022-09-06T23:36:21.717Z,2.83
2022-09-06T23:38:49.177Z,3.13
2022-09-06T23:41:17.167Z,3.10
2022-09-06T23:43:44.894Z,3.47
2022-09-06T23:46:14.600Z,3.42
2022-09-06T23:48:42.920Z,3.22
2022-09-06T23:51:10.948Z,3.15
2022-09-06T23:53:38.547Z,3.50
2022-09-06T23:56:05.999Z,3.53
2022-09-06T23:58:33.466Z,3.75
